createdAt,value
2023-01-21T00:00:40.573Z,9.77
2023-01-21T00:02:44.890Z,10.10
2023-01-21T00:04:47.888Z,10.85
2023-01-21T00:06:51.820Z,9.80
2023-01-21T00:08:54.372Z,10.38
2023-01-21T00:10:57.206Z,10.27
2023-01-21T00:12:59.749Z,10.55
2023-01-21T00:15:02.307Z,9.68
2023-01-21T00:17:04.889Z,10.23
2023-01-21T00:19:07.514Z,9.80
2023-01-21T00:21:10.602Z,9.80
2023-01-21T00:23:14.503Z,8.35
2023-01-21T00:25:17.256Z,9.40
2023-01-21T00:27:19.852Z,9.82
2023-01-21T00:29:22.515Z,9.60
2023-01-21T00:31:25.268Z,10.15
2023-01-21T00:33:28.593Z,9.85
2023-01-21T00:35:31.292Z,8.98
2023-01-21T00:37:33.926Z,9.77
2023-01-21T00:39:42.619Z,9.45
2023-01-21T00:41:45.209Z,8.95
2023-01-21T00:43:47.806Z,8.65
2023-01-21T00:45:50.380Z,9.70
2023-01-21T00:47:52.969Z,9.73
2023-01-21T00:49:55.628Z,9.23
2023-01-21T00:51:58.802Z,8.77
2023-01-21T00:54:01.398Z,8.75
2023-01-21T00:56:07.703Z,9.43
2023-01-21T00:58:10.709Z,9.20
2023-01-21T01:00:15.177Z,9.30
2023-01-21T01:02:17.966Z,8.98
2023-01-21T01:04:20.584Z,9.48
2023-01-21T01:06:24.662Z,9.63
2023-01-21T01:08:27.243Z,8.98
2023-01-21T01:10:29.786Z,9.77
2023-01-21T01:12:33.717Z,9.85
2023-01-21T01:14:37.225Z,9.80
2023-01-21T01:16:39.819Z,9.00
2023-01-21T01:18:42.418Z,9.20
2023-01-21T01:20:47.316Z,10.35
2023-01-21T01:22:49.875Z,9.25
2023-01-21T01:24:52.449Z,9.43
2023-01-21T01:26:55.012Z,9.70
2023-01-21T01:28:58.919Z,9.10
2023-01-21T01:31:02.179Z,9.65
2023-01-21T01:33:05.070Z,10.18
2023-01-21T01:35:08.254Z,9.30
2023-01-21T01:37:10.875Z,10.27
2023-01-21T01:39:13.465Z,9.85
2023-01-21T01:41:18.197Z,9.80
2023-01-21T01:43:22.844Z,8.70
2023-01-21T01:45:26.864Z,8.90
2023-01-21T01:47:33.320Z,9.55
2023-01-21T01:49:36.011Z,10.45
2023-01-21T01:51:45.419Z,9.52
2023-01-21T01:53:49.261Z,9.48
2023-01-21T01:55:52.824Z,9.48
2023-01-21T01:57:56.319Z,9.48
2023-01-21T02:00:01.903Z,10.18
2023-01-21T02:02:08.575Z,10.88
2023-01-21T02:04:13.986Z,10.13
2023-01-21T02:06:18.359Z,10.15
2023-01-21T02:08:21.253Z,9.95
2023-01-21T02:10:23.793Z,9.30
2023-01-21T02:12:26.643Z,9.93
2023-01-21T02:14:30.586Z,9.57
2023-01-21T02:16:56.406Z,10.20
2023-01-21T02:19:14.188Z,10.80
2023-01-21T02:21:43.174Z,10.30
2023-01-21T02:24:11.498Z,10.63
2023-01-21T02:26:49.686Z,9.57
2023-01-21T02:29:17.137Z,10.95
2023-01-21T02:31:37.101Z,10.82
2023-01-21T02:33:53.404Z,11.68
2023-01-21T02:36:08.506Z,10.68
2023-01-21T02:38:20.986Z,10.55
2023-01-21T02:40:30.293Z,11.82
2023-01-21T02:42:42.076Z,11.85
2023-01-21T02:46:54.583Z,11.60
2023-01-21T02:49:01.893Z,11.82
2023-01-21T02:51:06.204Z,11.98
2023-01-21T02:53:19.903Z,11.85
2023-01-21T02:55:27.639Z,12.65
2023-01-21T02:57:38.007Z,12.65
2023-01-21T02:59:45.413Z,11.98
2023-01-21T03:02:00.505Z,12.93
2023-01-21T03:04:39.288Z,11.85
2023-01-21T03:07:00.541Z,13.00
2023-01-21T03:09:12.259Z,12.43
2023-01-21T03:13:44.120Z,11.73
2023-01-21T03:16:10.288Z,12.35
2023-01-21T03:18:19.655Z,11.35
2023-01-21T03:20:27.476Z,12.43
2023-01-21T03:22:35.089Z,12.50
2023-01-21T03:24:39.447Z,11.30
2023-01-21T03:26:46.795Z,13.93
2023-01-21T03:28:52.828Z,13.13
2023-01-21T03:31:00.474Z,11.77
2023-01-21T03:33:04.760Z,12.27
2023-01-21T03:35:09.780Z,12.50
2023-01-21T03:37:19.387Z,12.32
2023-01-21T03:39:30.216Z,12.10
2023-01-21T03:41:36.778Z,11.87
2023-01-21T03:43:40.053Z,13.00
2023-01-21T03:45:49.709Z,12.23
2023-01-21T03:47:58.380Z,11.68
2023-01-21T03:50:06.671Z,12.57
2023-01-21T03:52:11.225Z,13.35
2023-01-21T03:54:15.305Z,11.95
2023-01-21T03:56:17.903Z,12.45
2023-01-21T03:58:20.489Z,12.38
2023-01-21T04:00:23.497Z,12.75
2023-01-21T04:02:26.271Z,12.60
2023-01-21T04:04:28.950Z,12.68
2023-01-21T04:06:31.621Z,12.32
2023-01-21T04:08:34.186Z,13.45
2023-01-21T04:10:38.132Z,12.70
2023-01-21T04:12:40.761Z,12.95
2023-01-21T04:14:43.424Z,12.48
2023-01-21T04:16:46.068Z,12.70
2023-01-21T04:18:48.853Z,12.85
2023-01-21T04:20:51.429Z,13.25
2023-01-21T04:22:54.056Z,13.00
2023-01-21T04:24:56.674Z,13.15
2023-01-21T04:27:00.558Z,13.48
2023-01-21T04:29:03.194Z,13.38
2023-01-21T04:31:05.979Z,12.73
2023-01-21T04:33:08.618Z,12.35
2023-01-21T04:35:11.367Z,13.00
2023-01-21T04:37:13.980Z,12.10
2023-01-21T04:39:16.759Z,13.38
2023-01-21T04:41:19.464Z,13.30
2023-01-21T04:43:23.368Z,13.75
2023-01-21T04:45:26.059Z,13.05
2023-01-21T04:47:28.731Z,12.65
2023-01-21T04:49:31.289Z,12.52
2023-01-21T04:51:33.844Z,12.23
2023-01-21T04:53:36.462Z,11.95
2023-01-21T04:55:39.075Z,12.52
2023-01-21T04:57:41.641Z,12.23
2023-01-21T04:59:45.583Z,12.30
2023-01-21T05:01:48.146Z,12.65
2023-01-21T05:03:50.711Z,12.90
2023-01-21T05:05:53.293Z,12.65
2023-01-21T05:07:56.126Z,12.55
2023-01-21T05:09:58.706Z,12.50
2023-01-21T05:12:01.285Z,12.45
2023-01-21T05:14:03.848Z,12.90
2023-01-21T05:16:09.979Z,12.02
2023-01-21T05:18:12.626Z,12.73
2023-01-21T05:20:15.730Z,13.10
2023-01-21T05:22:18.581Z,12.73
2023-01-21T05:24:21.190Z,12.52
2023-01-21T05:26:23.765Z,12.90
2023-01-21T05:28:26.810Z,12.00
2023-01-21T05:30:29.487Z,12.25
2023-01-21T05:32:33.485Z,12.60
2023-01-21T05:34:36.069Z,12.45
2023-01-21T05:36:39.306Z,11.70
2023-01-21T05:38:42.037Z,12.05
2023-01-21T05:40:44.611Z,12.40
2023-01-21T05:42:48.169Z,11.95
2023-01-21T05:44:50.741Z,12.10
2023-01-21T05:46:53.497Z,12.60
2023-01-21T05:48:57.365Z,11.70
2023-01-21T05:51:00.358Z,11.70
2023-01-21T05:53:02.940Z,12.25
2023-01-21T05:55:06.503Z,12.40
2023-01-21T05:57:09.057Z,12.20
2023-01-21T05:59:11.631Z,11.15
2023-01-21T06:01:14.215Z,12.10
2023-01-21T06:03:17.766Z,11.45
2023-01-21T06:05:21.722Z,12.60
2023-01-21T06:07:24.284Z,11.43
2023-01-21T06:09:26.916Z,11.30
2023-01-21T06:11:29.457Z,11.90
2023-01-21T06:13:32.005Z,12.02
2023-01-21T06:15:34.664Z,11.38
2023-01-21T06:17:39.728Z,12.23
2023-01-21T06:19:42.335Z,11.20
2023-01-21T06:21:46.267Z,11.68
2023-01-21T06:23:48.800Z,11.63
2023-01-21T06:25:51.350Z,11.32
2023-01-21T06:27:55.782Z,11.50
2023-01-21T06:29:58.377Z,12.23
2023-01-21T06:32:00.984Z,11.93
2023-01-21T06:34:03.699Z,11.02
2023-01-21T06:36:06.911Z,11.30
2023-01-21T06:38:10.935Z,11.88
2023-01-21T06:40:14.652Z,12.10
2023-01-21T06:42:17.877Z,12.23
2023-01-21T06:44:20.432Z,12.07
2023-01-21T06:46:23.150Z,11.88
2023-01-21T06:48:25.868Z,11.10
2023-01-21T06:50:28.435Z,11.02
2023-01-21T06:52:30.988Z,11.57
2023-01-21T06:54:34.888Z,11.82
2023-01-21T06:56:38.284Z,12.95
2023-01-21T06:58:40.918Z,12.00
2023-01-21T07:00:43.509Z,12.75
2023-01-21T07:02:46.214Z,12.55
2023-01-21T07:04:50.827Z,11.85
2023-01-21T07:06:53.539Z,13.00
2023-01-21T07:08:56.104Z,12.90
2023-01-21T07:11:00.007Z,12.88
2023-01-21T07:13:02.645Z,13.93
2023-01-21T07:15:06.473Z,12.82
2023-01-21T07:17:09.025Z,13.25
2023-01-21T07:19:12.466Z,12.80
2023-01-21T07:21:15.072Z,13.90
2023-01-21T07:23:17.686Z,14.00
2023-01-21T07:25:20.559Z,13.20
2023-01-21T07:27:24.497Z,13.55
2023-01-21T07:29:28.009Z,14.10
2023-01-21T07:31:30.707Z,12.77
2023-01-21T07:33:33.346Z,12.77
2023-01-21T07:35:36.662Z,13.75
2023-01-21T07:37:39.206Z,13.20
2023-01-21T07:39:41.812Z,13.65
2023-01-21T07:41:44.418Z,12.80
2023-01-21T07:43:49.124Z,14.18
2023-01-21T07:45:51.870Z,14.05
2023-01-21T07:47:54.421Z,12.90
2023-01-21T07:49:57.058Z,13.57
2023-01-21T07:51:59.819Z,12.63
2023-01-21T07:54:02.395Z,11.43
2023-01-21T07:56:05.504Z,12.32
2023-01-21T07:58:08.097Z,12.50
2023-01-21T08:00:13.559Z,13.48
2023-01-21T08:02:16.264Z,12.38
2023-01-21T08:04:18.903Z,13.68
2023-01-21T08:06:21.455Z,14.63
2023-01-21T08:08:24.021Z,15.32
2023-01-21T08:10:27.196Z,15.43
2023-01-21T08:12:29.744Z,16.52
2023-01-21T08:14:32.458Z,16.48
2023-01-21T08:16:36.511Z,16.20
2023-01-21T08:18:39.123Z,15.90
2023-01-21T08:20:41.709Z,15.30
2023-01-21T08:22:44.296Z,15.27
2023-01-21T08:24:47.165Z,15.38
2023-01-21T08:26:49.849Z,15.20
2023-01-21T08:28:54.420Z,14.95
2023-01-21T08:31:04.161Z,15.18
2023-01-21T08:33:08.134Z,15.57
2023-01-21T08:35:11.084Z,15.90
2023-01-21T08:37:13.687Z,15.77
2023-01-21T08:39:16.459Z,15.18
2023-01-21T08:41:19.066Z,15.73
2023-01-21T08:43:21.611Z,15.02
2023-01-21T08:45:24.206Z,16.27
2023-01-21T08:47:29.015Z,15.45
2023-01-21T08:49:32.958Z,15.05
2023-01-21T08:51:35.680Z,14.40
2023-01-21T08:53:38.304Z,15.85
2023-01-21T08:55:40.905Z,16.45
2023-01-21T08:57:43.462Z,14.75
2023-01-21T08:59:46.045Z,15.82
2023-01-21T09:01:48.625Z,15.75
2023-01-21T09:03:55.384Z,16.42
2023-01-21T09:06:02.662Z,16.13
2023-01-21T09:08:05.242Z,17.73
2023-01-21T09:10:09.049Z,16.95
2023-01-21T09:12:11.622Z,17.23
2023-01-21T09:14:14.211Z,16.77
2023-01-21T09:16:19.654Z,17.67
2023-01-21T09:18:22.305Z,17.25
2023-01-21T09:20:24.851Z,17.55
2023-01-21T09:22:28.859Z,18.40
2023-01-21T09:24:31.592Z,18.58
2023-01-21T09:26:34.228Z,16.85
2023-01-21T09:28:38.588Z,19.80
2023-01-21T09:30:41.163Z,19.58
2023-01-21T09:32:43.762Z,18.60
2023-01-21T09:34:46.336Z,18.45
2023-01-21T09:36:48.896Z,18.88
2023-01-21T09:38:52.956Z,20.85
2023-01-21T09:40:57.055Z,19.92
2023-01-21T09:43:04.236Z,19.42
2023-01-21T09:45:07.689Z,19.95
2023-01-21T09:47:18.951Z,18.92
2023-01-21T09:49:25.169Z,19.50
2023-01-21T09:51:35.914Z,18.52
2023-01-21T09:53:45.900Z,18.15
2023-01-21T09:55:51.211Z,19.88
2023-01-21T09:58:11.324Z,18.98
2023-01-21T10:00:25.183Z,19.40
2023-01-21T10:02:33.315Z,19.02
2023-01-21T10:04:46.871Z,19.30
2023-01-21T10:06:54.809Z,19.15
2023-01-21T10:09:11.879Z,19.50
2023-01-21T10:11:28.062Z,19.15
2023-01-21T10:13:41.982Z,20.48
2023-01-21T10:15:54.164Z,20.63
2023-01-21T10:18:00.420Z,20.70
2023-01-21T10:20:13.694Z,20.20
2023-01-21T10:22:20.334Z,21.58
2023-01-21T10:24:26.660Z,22.58
2023-01-21T10:26:34.909Z,23.38
2023-01-21T10:28:40.094Z,22.45
2023-01-21T10:30:45.789Z,21.52
2023-01-21T10:32:52.215Z,21.70
2023-01-21T10:34:56.298Z,21.35
2023-01-21T10:37:10.062Z,23.17
2023-01-21T10:39:24.116Z,21.33
2023-01-21T10:41:43.529Z,22.15
2023-01-21T10:43:50.408Z,20.85
2023-01-21T10:46:03.692Z,21.85
2023-01-21T10:48:14.479Z,22.25
2023-01-21T10:50:29.595Z,21.70
2023-01-21T10:52:38.876Z,20.75
2023-01-21T10:54:50.065Z,21.23
2023-01-21T10:57:04.918Z,22.08
2023-01-21T10:59:11.734Z,23.20
2023-01-21T11:01:21.911Z,22.92
2023-01-21T11:03:33.536Z,21.42
2023-01-21T11:05:36.654Z,23.38
2023-01-21T11:07:43.039Z,23.60
2023-01-21T11:09:48.544Z,24.25
2023-01-21T11:11:51.150Z,23.08
2023-01-21T11:13:56.105Z,22.05
2023-01-21T11:16:00.906Z,23.23
2023-01-21T11:18:29.084Z,24.67
2023-01-21T11:20:36.931Z,22.88
2023-01-21T11:22:43.591Z,22.45
2023-01-21T11:24:47.505Z,23.33
2023-01-21T11:26:52.048Z,24.75
2023-01-21T11:29:08.739Z,22.75
2023-01-21T11:31:14.422Z,23.80
2023-01-21T11:33:24.964Z,23.40
2023-01-21T11:35:29.150Z,24.63
2023-01-21T11:37:33.728Z,22.48
2023-01-21T11:39:39.921Z,22.33
2023-01-21T11:41:52.455Z,23.48
2023-01-21T11:43:58.396Z,23.10
2023-01-21T11:46:01.261Z,23.48
2023-01-21T11:48:20.441Z,22.67
2023-01-21T11:50:27.441Z,23.95
2023-01-21T11:52:31.400Z,25.83
2023-01-21T11:54:40.421Z,22.85
2023-01-21T11:56:53.260Z,24.85
2023-01-21T11:58:55.823Z,22.85
2023-01-21T12:01:01.095Z,23.42
2023-01-21T12:03:06.744Z,26.02
2023-01-21T12:05:16.883Z,23.45
2023-01-21T12:07:21.479Z,26.00
2023-01-21T12:09:27.240Z,24.50
2023-01-21T12:11:32.658Z,23.98
2023-01-21T12:13:45.894Z,24.88
2023-01-21T12:16:03.689Z,24.85
2023-01-21T12:18:21.972Z,25.52
2023-01-21T12:20:34.881Z,25.13
2023-01-21T12:22:50.360Z,24.00
2023-01-21T12:25:31.472Z,24.73
2023-01-21T12:27:41.775Z,25.55
2023-01-21T12:29:58.994Z,25.85
2023-01-21T12:32:06.805Z,24.67
2023-01-21T12:34:21.219Z,24.77
2023-01-21T12:36:30.655Z,25.23
2023-01-21T12:38:36.994Z,25.42
2023-01-21T12:40:48.155Z,25.15
2023-01-21T12:42:56.778Z,24.48
2023-01-21T12:45:02.941Z,23.70
2023-01-21T12:47:15.005Z,24.48
2023-01-21T12:49:22.143Z,24.17
2023-01-21T12:51:29.420Z,23.83
2023-01-21T12:53:41.333Z,26.58
2023-01-21T12:56:02.455Z,24.92
2023-01-21T12:58:09.528Z,23.35
2023-01-21T13:00:21.163Z,22.27
2023-01-21T13:02:29.598Z,22.05
2023-01-21T13:04:45.713Z,22.20
2023-01-21T13:06:54.811Z,22.17
2023-01-21T13:09:04.239Z,20.98
2023-01-21T13:11:18.455Z,19.42
2023-01-21T13:13:28.553Z,20.83
2023-01-21T13:15:34.152Z,20.35
2023-01-21T13:17:41.006Z,21.10
2023-01-21T13:19:43.605Z,21.10
2023-01-21T13:21:54.648Z,20.20
2023-01-21T13:24:04.373Z,20.77
2023-01-21T13:26:16.238Z,20.75
2023-01-21T13:28:29.943Z,19.30
2023-01-21T13:30:40.064Z,20.08
2023-01-21T13:32:48.553Z,19.75
2023-01-21T13:34:58.948Z,19.73
2023-01-21T13:37:10.967Z,20.35
2023-01-21T13:39:22.585Z,19.67
2023-01-21T13:41:47.063Z,19.13
2023-01-21T13:44:09.608Z,18.73
2023-01-21T13:46:28.153Z,18.98
2023-01-21T13:48:45.565Z,19.95
2023-01-21T13:51:03.743Z,19.40
2023-01-21T13:53:20.401Z,19.02
2023-01-21T13:55:34.114Z,18.27
2023-01-21T13:57:54.735Z,18.70
2023-01-21T14:00:04.668Z,18.50
2023-01-21T14:02:12.661Z,19.02
2023-01-21T14:04:23.023Z,17.63
2023-01-21T14:06:29.231Z,18.50
2023-01-21T14:08:37.285Z,18.50
2023-01-21T14:10:44.707Z,18.80
2023-01-21T14:13:28.029Z,17.70
2023-01-21T14:15:47.847Z,17.70
2023-01-21T14:18:13.777Z,16.90
2023-01-21T14:20:33.359Z,18.95
2023-01-21T14:22:51.379Z,18.77
2023-01-21T14:25:09.759Z,17.85
2023-01-21T14:27:23.995Z,16.85
2023-01-21T14:29:36.376Z,17.98
2023-01-21T14:31:44.207Z,17.55
2023-01-21T14:33:51.538Z,16.05
2023-01-21T14:36:02.344Z,17.48
2023-01-21T14:38:14.360Z,17.10
2023-01-21T14:40:20.592Z,16.40
2023-01-21T14:42:41.956Z,17.60
2023-01-21T14:45:02.304Z,17.48
2023-01-21T14:47:16.519Z,17.67
2023-01-21T14:49:41.307Z,19.35
2023-01-21T14:51:49.831Z,17.55
2023-01-21T14:53:58.063Z,16.65
2023-01-21T14:56:10.634Z,17.30
2023-01-21T14:58:23.067Z,18.08
2023-01-21T15:00:32.485Z,16.75
2023-01-21T15:02:40.707Z,17.50
2023-01-21T15:04:54.130Z,18.77
2023-01-21T15:09:01.801Z,19.52
2023-01-21T15:11:06.275Z,18.65
2023-01-21T15:13:28.065Z,17.75
2023-01-21T15:15:34.937Z,17.58
2023-01-21T15:18:04.917Z,16.98
2023-01-21T15:20:39.898Z,16.55
2023-01-21T15:22:46.748Z,16.92
2023-01-21T15:25:20.183Z,17.33
2023-01-21T15:27:25.716Z,15.38
2023-01-21T15:29:34.704Z,18.50
2023-01-21T15:31:42.863Z,17.42
2023-01-21T15:33:50.862Z,16.80
2023-01-21T15:35:55.043Z,15.85
2023-01-21T15:38:05.218Z,17.17
2023-01-21T15:40:17.988Z,15.95
2023-01-21T15:42:27.943Z,17.38
2023-01-21T15:44:48.513Z,17.33
2023-01-21T15:46:59.825Z,17.77
2023-01-21T15:49:21.322Z,16.98
2023-01-21T15:51:32.408Z,17.52
2023-01-21T15:53:52.642Z,17.58
2023-01-21T15:56:08.822Z,17.73
2023-01-21T15:58:22.835Z,18.05
2023-01-21T16:00:34.687Z,16.92
2023-01-21T16:02:51.647Z,19.50
2023-01-21T16:05:05.652Z,17.08
2023-01-21T16:07:20.536Z,17.08
2023-01-21T16:09:33.709Z,16.55
2023-01-21T16:11:55.042Z,16.73
2023-01-21T16:14:13.080Z,17.95
2023-01-21T16:16:25.489Z,17.80
2023-01-21T16:20:35.085Z,16.02
2023-01-21T16:22:41.061Z,16.80
2023-01-21T16:24:49.195Z,15.85
2023-01-21T16:26:51.783Z,15.38
2023-01-21T16:28:55.228Z,16.60
2023-01-21T16:30:59.760Z,16.48
2023-01-21T16:33:10.318Z,16.55
2023-01-21T16:35:12.843Z,16.55
2023-01-21T16:37:18.650Z,16.63
2023-01-21T16:39:21.260Z,16.73
2023-01-21T16:41:28.619Z,16.40
2023-01-21T16:43:31.680Z,18.25
2023-01-21T16:45:34.292Z,17.88
2023-01-21T16:47:37.951Z,17.00
2023-01-21T16:49:43.401Z,16.63
2023-01-21T16:51:54.052Z,17.20
2023-01-21T16:54:29.534Z,15.73
2023-01-21T16:56:33.481Z,17.30
2023-01-21T16:58:36.352Z,15.88
2023-01-21T17:00:38.969Z,16.90
2023-01-21T17:02:41.630Z,18.20
2023-01-21T17:04:44.224Z,16.92
2023-01-21T17:06:47.721Z,17.05
2023-01-21T17:08:55.010Z,16.45
2023-01-21T17:11:00.186Z,16.77
2023-01-21T17:13:06.808Z,16.30
2023-01-21T17:15:19.556Z,15.85
2023-01-21T17:17:24.412Z,15.70
2023-01-21T17:19:34.130Z,15.43
2023-01-21T17:21:41.757Z,16.60
2023-01-21T17:23:48.958Z,15.18
2023-01-21T17:25:56.321Z,16.02
2023-01-21T17:27:58.963Z,15.73
2023-01-21T17:30:31.273Z,15.63
2023-01-21T17:32:34.763Z,15.25
2023-01-21T17:34:39.845Z,15.73
2023-01-21T17:36:44.115Z,15.73
2023-01-21T17:38:47.906Z,14.60
2023-01-21T17:41:01.284Z,14.55
2023-01-21T17:43:16.355Z,15.88
2023-01-21T17:45:24.857Z,15.77
2023-01-21T17:47:30.803Z,15.48
2023-01-21T17:49:33.485Z,15.82
2023-01-21T17:51:36.600Z,16.08
2023-01-21T17:53:46.287Z,15.20
2023-01-21T17:55:58.863Z,16.38
2023-01-21T17:58:04.569Z,15.25
2023-01-21T18:00:25.812Z,14.70
2023-01-21T18:02:29.843Z,14.07
2023-01-21T18:04:32.543Z,14.93
2023-01-21T18:06:35.708Z,14.77
2023-01-21T18:08:38.263Z,13.68
2023-01-21T18:10:41.614Z,15.10
2023-01-21T18:12:44.170Z,13.65
2023-01-21T18:14:47.263Z,16.65
2023-01-21T18:16:50.185Z,15.45
2023-01-21T18:18:54.668Z,14.65
2023-01-21T18:20:57.522Z,15.43
2023-01-21T18:23:00.529Z,15.35
2023-01-21T18:25:05.169Z,14.65
2023-01-21T18:27:10.419Z,14.60
2023-01-21T18:29:12.955Z,14.60
2023-01-21T18:31:15.811Z,15.27
2023-01-21T18:33:18.748Z,15.18
2023-01-21T18:35:26.651Z,15.43
2023-01-21T18:37:29.226Z,13.45
2023-01-21T18:39:31.780Z,15.35
2023-01-21T18:41:34.334Z,15.25
2023-01-21T18:43:36.912Z,15.88
2023-01-21T18:45:40.240Z,14.52
2023-01-21T18:47:43.606Z,14.15
2023-01-21T18:49:49.274Z,14.10
2023-01-21T18:51:53.325Z,13.52
2023-01-21T18:53:55.883Z,14.10
2023-01-21T18:55:58.448Z,13.57
2023-01-21T18:58:02.380Z,13.95
2023-01-21T19:00:14.719Z,13.63
2023-01-21T19:02:19.813Z,13.13
2023-01-21T19:04:22.400Z,13.43
2023-01-21T19:06:26.019Z,14.48
2023-01-21T19:08:30.256Z,13.75
2023-01-21T19:10:33.056Z,14.13
2023-01-21T19:12:35.631Z,13.68
2023-01-21T19:14:38.236Z,13.75
2023-01-21T19:16:41.398Z,13.45
2023-01-21T19:18:43.997Z,13.93
2023-01-21T19:20:46.597Z,13.50
2023-01-21T19:22:50.139Z,13.18
2023-01-21T19:24:54.069Z,14.05
2023-01-21T19:26:56.658Z,12.68
2023-01-21T19:28:59.284Z,13.75
2023-01-21T19:31:02.017Z,14.38
2023-01-21T19:33:05.390Z,14.18
2023-01-21T19:35:09.064Z,13.43
2023-01-21T19:37:14.858Z,14.15
2023-01-21T19:39:22.826Z,14.02
2023-01-21T19:41:26.782Z,14.18
2023-01-21T19:43:29.589Z,12.90
2023-01-21T19:45:32.364Z,14.25
2023-01-21T19:47:35.016Z,14.95
2023-01-21T19:49:37.727Z,14.35
2023-01-21T19:51:40.271Z,15.30
2023-01-21T19:53:42.812Z,15.25
2023-01-21T19:55:46.681Z,14.48
2023-01-21T19:57:56.239Z,15.88
2023-01-21T19:59:59.561Z,16.65
2023-01-21T20:02:02.208Z,14.55
2023-01-21T20:04:04.810Z,15.02
2023-01-21T20:06:11.215Z,16.20
2023-01-21T20:08:22.184Z,17.60
2023-01-21T20:10:26.680Z,16.75
2023-01-21T20:12:29.224Z,16.08
2023-01-21T20:14:33.328Z,16.60
2023-01-21T20:16:46.839Z,18.42
2023-01-21T20:18:49.822Z,16.38
2023-01-21T20:20:53.167Z,16.42
2023-01-21T20:22:55.886Z,17.95
2023-01-21T20:24:58.439Z,18.15
2023-01-21T20:27:02.083Z,18.13
2023-01-21T20:29:07.041Z,16.42
2023-01-21T20:31:12.070Z,17.95
2023-01-21T20:33:18.333Z,17.75
2023-01-21T20:35:22.517Z,18.40
2023-01-21T20:37:25.654Z,19.33
2023-01-21T20:39:28.308Z,18.15
2023-01-21T20:41:30.995Z,18.45
2023-01-21T20:43:34.071Z,19.40
2023-01-21T20:45:41.995Z,18.80
2023-01-21T20:47:50.976Z,19.35
2023-01-21T20:49:53.533Z,18.58
2023-01-21T20:51:56.176Z,18.98
2023-01-21T20:53:58.772Z,19.13
2023-01-21T20:56:13.322Z,18.52
2023-01-21T20:58:17.221Z,19.38
2023-01-21T21:00:22.501Z,18.55
2023-01-21T21:02:25.180Z,18.08
2023-01-21T21:04:29.947Z,18.05
2023-01-21T21:06:33.476Z,18.45
2023-01-21T21:08:36.045Z,19.50
2023-01-21T21:10:38.659Z,20.05
2023-01-21T21:12:41.233Z,20.20
2023-01-21T21:14:43.861Z,19.80
2023-01-21T21:16:46.672Z,18.98
2023-01-21T21:18:49.820Z,19.02
2023-01-21T21:20:54.634Z,18.48
2023-01-21T21:22:57.202Z,19.50
2023-01-21T21:24:59.823Z,18.90
2023-01-21T21:27:03.547Z,20.50
2023-01-21T21:29:12.655Z,19.95
2023-01-21T21:31:17.147Z,19.23
2023-01-21T21:33:22.603Z,18.98
2023-01-21T21:35:28.588Z,20.52
2023-01-21T21:37:32.469Z,19.45
2023-01-21T21:39:35.038Z,20.52
2023-01-21T21:41:54.988Z,19.50
2023-01-21T21:43:57.517Z,18.75
2023-01-21T21:46:22.374Z,19.15
2023-01-21T21:48:42.374Z,20.00
2023-01-21T21:50:44.936Z,19.75
2023-01-21T21:52:48.826Z,19.98
2023-01-21T21:54:51.594Z,19.48
2023-01-21T21:56:54.102Z,19.80
2023-01-21T21:58:56.655Z,20.05
2023-01-21T22:01:07.771Z,19.27
2023-01-21T22:03:11.719Z,19.90
2023-01-21T22:05:14.415Z,18.90
2023-01-21T22:07:16.964Z,20.20
2023-01-21T22:09:20.960Z,19.30
2023-01-21T22:11:24.135Z,20.08
2023-01-21T22:13:27.527Z,18.27
2023-01-21T22:15:30.086Z,19.35
2023-01-21T22:17:35.535Z,19.08
2023-01-21T22:19:38.131Z,19.35
2023-01-21T22:21:40.847Z,18.02
2023-01-21T22:23:43.995Z,18.02
2023-01-21T22:25:47.960Z,18.52
2023-01-21T22:27:50.503Z,18.33
2023-01-21T22:29:53.044Z,18.30
2023-01-21T22:31:55.665Z,18.38
2023-01-21T22:33:59.686Z,17.63
2023-01-21T22:36:03.451Z,19.00
2023-01-21T22:38:06.556Z,17.92
2023-01-21T22:40:11.430Z,19.02
2023-01-21T22:42:15.363Z,20.77
2023-01-21T22:44:18.169Z,18.48
2023-01-21T22:46:22.377Z,17.90
2023-01-21T22:48:25.577Z,18.63
2023-01-21T22:50:28.288Z,17.85
2023-01-21T22:52:30.871Z,17.63
2023-01-21T22:54:33.433Z,17.83
2023-01-21T22:56:50.971Z,19.08
2023-01-21T22:58:58.737Z,17.48
2023-01-21T23:01:02.301Z,17.45
2023-01-21T23:03:05.695Z,16.92
2023-01-21T23:05:08.905Z,18.45
2023-01-21T23:07:11.646Z,18.85
2023-01-21T23:09:15.199Z,17.45
2023-01-21T23:11:21.775Z,16.50
2023-01-21T23:13:26.341Z,16.75
2023-01-21T23:15:30.513Z,16.35
2023-01-21T23:17:33.089Z,16.88
2023-01-21T23:19:35.653Z,17.83
2023-01-21T23:21:38.585Z,16.70
2023-01-21T23:23:41.154Z,16.08
2023-01-21T23:25:44.835Z,15.65
2023-01-21T23:27:47.411Z,17.45
2023-01-21T23:29:49.944Z,17.48
2023-01-21T23:31:53.968Z,18.95
2023-01-21T23:33:57.283Z,18.38
2023-01-21T23:36:00.836Z,18.30
2023-01-21T23:38:04.036Z,16.73
2023-01-21T23:40:08.213Z,16.75
2023-01-21T23:42:10.801Z,18.33
2023-01-21T23:44:13.354Z,17.10
2023-01-21T23:46:19.332Z,19.38
2023-01-21T23:48:24.583Z,17.77
2023-01-21T23:50:27.199Z,18.52
2023-01-21T23:52:29.756Z,16.45
2023-01-21T23:54:32.408Z,18.80
2023-01-21T23:56:35.008Z,17.98
2023-01-21T23:58:37.676Z,18.98
